Miguel Oliver — ECLX — position and weather

sailwx.info

Track history (hours):
 
Tides and Currents Weather Stations Pressure Air Temp Water Temp Dewpoint Dewpoint Depression Visibility Wind Speed Wind Dir Waves Ship Positions

Oceanographic research ship Miguel Oliver (Spain)

Ship's website: http://www.mapa.es/es/pesca/pags/miguel_web/index.htm

Last reported at 2020-Mar-25 08:30 UTC. Time now 2020-Apr-03 07:05 UTC.
Position N 39°17' W 009°40'.
Warning: this ship's position is 8 days out of date.

Length 70 m; draft 5.8 m.

Type: Ship (hazmat cat A). MMSI: 225322000.

Date/timePositionNaut miles runAvg speedWind from/ knotsBaromVisibWave heightAir tempDewpointWater temp
2020-Mar-25 08:30N 39°17' W 009°40'5 9.4
2020-Mar-25 08:00N 39°13' W 009°41'24 9.5
2020-Mar-25 05:30N 38°49' W 009°43'4010.0
2020-Mar-25 01:30N 38°11' W 009°30'5 9.9
2020-Mar-25 01:00N 38°06' W 009°28'5 9.8
2020-Mar-25 00:30N 38°01' W 009°26'15 9.7
2020-Mar-24 23:00N 37°47' W 009°20'14 9.5
2020-Mar-24 21:30N 37°34' W 009°14'15 9.7
2020-Mar-24 19:54N 37°19' W 009°09'4 9.1
2020-Mar-24 19:30N 37°16' W 009°07'5 9.3
2020-Mar-24 19:00N 37°11' W 009°05'13 8.8
2020-Mar-24 17:30N 36°59' W 008°59'5 9.4
2020-Mar-24 17:00N 36°57' W 008°54'12 8.3
2020-Mar-24 15:30N 36°54' W 008°39'7 4.8
2020-Mar-24 14:00N 37°01' W 008°39'0 1.0
2020-Mar-24 13:30N 37°01' W 008°39'2 3.3
2020-Mar-24 13:01N 37°03' W 008°39'10 3.3
2020-Mar-24 10:00N 36°54' W 008°45'7 4.7
2020-Mar-24 08:30N 36°58' W 008°52'3 6.2
2020-Mar-24 08:00N 37°01' W 008°52'510.1
2020-Mar-24 07:30N 36°56' W 008°52'4 1.9
2020-Mar-24 05:30N 36°56' W 008°47'2 1.9
2020-Mar-24 04:30N 36°57' W 008°49'3 1.1
2020-Mar-24 01:30N 36°59' W 008°52'1 0.7
2020-Mar-24 00:30N 36°59' W 008°53'2 2.3
2020-Mar-23 23:30N 36°58' W 008°56'2 0.8
2020-Mar-23 21:00N 36°57' W 008°58'6 3.9
2020-Mar-23 19:22N 36°50' W 008°58'34 5.9
2020-Mar-23 13:30N 37°24' W 008°50'2 4.0
2020-Mar-23 13:00N 37°26' W 008°49'8 5.5
2020-Mar-23 11:28N 37°19' W 008°55'5 9.7
2020-Mar-23 11:00N 37°17' W 009°00'8 4.9
2020-Mar-23 09:18N 37°09' W 009°04'9 5.5
2020-Mar-23 07:37N 37°15' W 008°56'4 1.9
2020-Mar-23 05:30N 37°17' W 009°00'3 2.8
2020-Mar-23 04:24N 37°20' W 008°57'4 1.6
2020-Mar-23 01:30N 37°23' W 008°54'0 0.2
2020-Mar-22 23:36N 37°23' W 008°53'2 1.6
2020-Mar-22 22:30N 37°21' W 008°52'2 4.5
2020-Mar-22 22:00N 37°21' W 008°55'6 3.1
2020-Mar-22 20:00N 37°21' W 009°02'1 1.0
2020-Mar-22 19:31N 37°21' W 009°03'3 3.0
2020-Mar-22 18:28N 37°21' W 008°59'9 7.7
2020-Mar-22 17:18N 37°26' W 008°49'10 7.1
2020-Mar-22 15:56N 37°30' W 009°01'16 4.0
2020-Mar-22 12:00N 37°45' W 008°57'12 3.6
2020-Mar-22 08:30N 37°57' W 009°01'3 1.3
2020-Mar-22 06:00N 37°59' W 008°58'2 2.5
2020-Mar-22 05:00N 37°58' W 008°56'2 1.6
2020-Mar-22 03:30N 37°60' W 008°58'2 1.7
2020-Mar-22 02:30N 38°01' W 008°60'9 3.0
2020-Mar-21 23:30N 38°08' W 008°53'3 3.4
2020-Mar-21 22:30N 38°10' W 008°49'5 2.6
2020-Mar-21 20:30N 38°09' W 008°56'3 2.9
2020-Mar-21 19:30N 38°09' W 008°59'8 5.5
2020-Mar-21 18:01N 38°05' W 008°50'3 6.1
2020-Mar-21 17:30N 38°03' W 008°53'8 7.9
2020-Mar-21 16:31N 38°06' W 009°02'13 4.3
2020-Mar-21 13:30N 38°13' W 008°48'9 4.3
2020-Mar-21 11:30N 38°21' W 008°52'9 4.3
2020-Mar-21 09:30N 38°20' W 009°02'11 1.7
2020-Mar-21 03:00N 38°24' W 009°15'1 2.9
2020-Mar-21 02:30N 38°25' W 009°15'1 2.9
2020-Mar-21 02:00N 38°27' W 009°15'1 3.0
2020-Mar-21 01:30N 38°28' W 009°15'1 3.0
2020-Mar-21 01:00N 38°29' W 009°16'3 2.9
2020-Mar-21 00:00N 38°32' W 009°16'3 3.5
2020-Mar-20 23:00N 38°36' W 009°16'2 1.5
2020-Mar-20 21:30N 38°35' W 009°18'3 5.2
2020-Mar-20 21:00N 38°33' W 009°20'0 1.0
2020-Mar-20 20:30N 38°33' W 009°21'3 3.3
2020-Mar-20 19:30N 38°30' W 009°23'5 9.4
2020-Mar-20 19:00N 38°26' W 009°20'10 4.8
2020-Mar-20 17:00N 38°35' W 009°15'1 0.6
2020-Mar-20 16:00N 38°35' W 009°16'10 6.7
2020-Mar-20 14:30N 38°28' W 009°26'5 9.4
2020-Mar-20 14:00N 38°33' W 009°25'0 0.4
2020-Mar-20 13:00N 38°32' W 009°26'6 3.0
2020-Mar-20 11:00N 38°37' W 009°30'6 3.1
2020-Mar-20 09:00N 38°41' W 009°36'4 8.5
2020-Mar-20 08:30N 38°42' W 009°31'13 5.4
2020-Mar-20 06:00N 38°46' W 009°47'2 4.2
2020-Mar-20 05:30N 38°49' W 009°47'8 3.2
2020-Mar-20 03:01N 38°54' W 009°39'2 3.6
2020-Mar-20 02:30N 38°55' W 009°37'8 3.1
2020-Mar-20 00:00N 38°55' W 009°27'3 2.9
2020-Mar-19 23:00N 38°54' W 009°31'0 0.3
2020-Mar-19 22:30N 38°55' W 009°31'12 4.9
2020-Mar-19 20:00N 38°56' W 009°47'3 7.0
2020-Mar-19 19:31N 38°55' W 009°43'10 9.9
2020-Mar-19 18:30N 38°55' W 009°30'10 4.8
2020-Mar-19 16:30N 39°03' W 009°37'6 2.9
2020-Mar-19 14:30N 39°02' W 009°44'4 7.8
2020-Mar-19 14:00N 39°03' W 009°49'510.6
2020-Mar-19 13:30N 39°08' W 009°48'19 5.3
2020-Mar-19 09:59N 39°15' W 009°26'1 1.9
2020-Mar-19 09:30N 39°16' W 009°27'4 3.3
2020-Mar-19 08:25N 39°18' W 009°24'18 9.6
2020-Mar-19 06:30N 39°18' W 009°48'3 3.2
2020-Mar-19 05:30N 39°18' W 009°44'2 3.8
2020-Mar-19 05:00N 39°18' W 009°41'2 3.8
2020-Mar-19 04:30N 39°18' W 009°39'4 3.5
2020-Mar-19 03:29N 39°19' W 009°34'3 3.4
2020-Mar-19 02:30N 39°19' W 009°30'6 4.0
2020-Mar-19 00:59N 39°25' W 009°27'2 0.4
2020-Mar-18 19:32N 39°27' W 009°26'9 8.7
2020-Mar-18 18:30N 39°27' W 009°38'  
Track history (hours):
 
Tides and Currents Weather Stations Pressure Air Temp Water Temp Dewpoint Dewpoint Depression Visibility Wind Speed Wind Dir Waves Ship Positions

Oceanographic research ship Miguel Oliver (Spain)

Ship's website: http://www.mapa.es/es/pesca/pags/miguel_web/index.htm

Last reported at 2020-Mar-25 08:30 UTC. Time now 2020-Apr-03 07:05 UTC.
Position N 39°17' W 009°40'.
Warning: this ship's position is 8 days out of date.

Length 70 m; draft 5.8 m.

Type: Ship (hazmat cat A). MMSI: 225322000.

Date/timePositionNaut miles runAvg speedWind from/ knotsBaromVisibWave heightAir tempDewpointWater temp
2020-Mar-25 08:30N 39°17' W 009°40'5 9.4
2020-Mar-25 08:00N 39°13' W 009°41'24 9.5
2020-Mar-25 05:30N 38°49' W 009°43'4010.0
2020-Mar-25 01:30N 38°11' W 009°30'5 9.9
2020-Mar-25 01:00N 38°06' W 009°28'5 9.8
2020-Mar-25 00:30N 38°01' W 009°26'15 9.7
2020-Mar-24 23:00N 37°47' W 009°20'14 9.5
2020-Mar-24 21:30N 37°34' W 009°14'15 9.7
2020-Mar-24 19:54N 37°19' W 009°09'4 9.1
2020-Mar-24 19:30N 37°16' W 009°07'5 9.3
2020-Mar-24 19:00N 37°11' W 009°05'13 8.8
2020-Mar-24 17:30N 36°59' W 008°59'5 9.4
2020-Mar-24 17:00N 36°57' W 008°54'12 8.3
2020-Mar-24 15:30N 36°54' W 008°39'7 4.8
2020-Mar-24 14:00N 37°01' W 008°39'0 1.0
2020-Mar-24 13:30N 37°01' W 008°39'2 3.3
2020-Mar-24 13:01N 37°03' W 008°39'10 3.3
2020-Mar-24 10:00N 36°54' W 008°45'7 4.7
2020-Mar-24 08:30N 36°58' W 008°52'3 6.2
2020-Mar-24 08:00N 37°01' W 008°52'510.1
2020-Mar-24 07:30N 36°56' W 008°52'4 1.9
2020-Mar-24 05:30N 36°56' W 008°47'2 1.9
2020-Mar-24 04:30N 36°57' W 008°49'3 1.1
2020-Mar-24 01:30N 36°59' W 008°52'1 0.7
2020-Mar-24 00:30N 36°59' W 008°53'2 2.3
2020-Mar-23 23:30N 36°58' W 008°56'2 0.8
2020-Mar-23 21:00N 36°57' W 008°58'6 3.9
2020-Mar-23 19:22N 36°50' W 008°58'34 5.9
2020-Mar-23 13:30N 37°24' W 008°50'2 4.0
2020-Mar-23 13:00N 37°26' W 008°49'8 5.5
2020-Mar-23 11:28N 37°19' W 008°55'5 9.7
2020-Mar-23 11:00N 37°17' W 009°00'8 4.9
2020-Mar-23 09:18N 37°09' W 009°04'9 5.5
2020-Mar-23 07:37N 37°15' W 008°56'4 1.9
2020-Mar-23 05:30N 37°17' W 009°00'3 2.8
2020-Mar-23 04:24N 37°20' W 008°57'4 1.6
2020-Mar-23 01:30N 37°23' W 008°54'0 0.2
2020-Mar-22 23:36N 37°23' W 008°53'2 1.6
2020-Mar-22 22:30N 37°21' W 008°52'2 4.5
2020-Mar-22 22:00N 37°21' W 008°55'6 3.1
2020-Mar-22 20:00N 37°21' W 009°02'1 1.0
2020-Mar-22 19:31N 37°21' W 009°03'3 3.0
2020-Mar-22 18:28N 37°21' W 008°59'9 7.7
2020-Mar-22 17:18N 37°26' W 008°49'10 7.1
2020-Mar-22 15:56N 37°30' W 009°01'16 4.0
2020-Mar-22 12:00N 37°45' W 008°57'12 3.6
2020-Mar-22 08:30N 37°57' W 009°01'3 1.3
2020-Mar-22 06:00N 37°59' W 008°58'2 2.5
2020-Mar-22 05:00N 37°58' W 008°56'2 1.6
2020-Mar-22 03:30N 37°60' W 008°58'2 1.7
2020-Mar-22 02:30N 38°01' W 008°60'9 3.0
2020-Mar-21 23:30N 38°08' W 008°53'3 3.4
2020-Mar-21 22:30N 38°10' W 008°49'5 2.6
2020-Mar-21 20:30N 38°09' W 008°56'3 2.9
2020-Mar-21 19:30N 38°09' W 008°59'8 5.5
2020-Mar-21 18:01N 38°05' W 008°50'3 6.1
2020-Mar-21 17:30N 38°03' W 008°53'8 7.9
2020-Mar-21 16:31N 38°06' W 009°02'13 4.3
2020-Mar-21 13:30N 38°13' W 008°48'9 4.3
2020-Mar-21 11:30N 38°21' W 008°52'9 4.3
2020-Mar-21 09:30N 38°20' W 009°02'11 1.7
2020-Mar-21 03:00N 38°24' W 009°15'1 2.9
2020-Mar-21 02:30N 38°25' W 009°15'1 2.9
2020-Mar-21 02:00N 38°27' W 009°15'1 3.0
2020-Mar-21 01:30N 38°28' W 009°15'1 3.0
2020-Mar-21 01:00N 38°29' W 009°16'3 2.9
2020-Mar-21 00:00N 38°32' W 009°16'3 3.5
2020-Mar-20 23:00N 38°36' W 009°16'2 1.5
2020-Mar-20 21:30N 38°35' W 009°18'3 5.2
2020-Mar-20 21:00N 38°33' W 009°20'0 1.0
2020-Mar-20 20:30N 38°33' W 009°21'3 3.3
2020-Mar-20 19:30N 38°30' W 009°23'5 9.4
2020-Mar-20 19:00N 38°26' W 009°20'10 4.8
2020-Mar-20 17:00N 38°35' W 009°15'1 0.6
2020-Mar-20 16:00N 38°35' W 009°16'10 6.7
2020-Mar-20 14:30N 38°28' W 009°26'5 9.4
2020-Mar-20 14:00N 38°33' W 009°25'0 0.4
2020-Mar-20 13:00N 38°32' W 009°26'6 3.0
2020-Mar-20 11:00N 38°37' W 009°30'6 3.1
2020-Mar-20 09:00N 38°41' W 009°36'4 8.5
2020-Mar-20 08:30N 38°42' W 009°31'13 5.4
2020-Mar-20 06:00N 38°46' W 009°47'2 4.2
2020-Mar-20 05:30N 38°49' W 009°47'8 3.2
2020-Mar-20 03:01N 38°54' W 009°39'2 3.6
2020-Mar-20 02:30N 38°55' W 009°37'8 3.1
2020-Mar-20 00:00N 38°55' W 009°27'3 2.9
2020-Mar-19 23:00N 38°54' W 009°31'0 0.3
2020-Mar-19 22:30N 38°55' W 009°31'12 4.9
2020-Mar-19 20:00N 38°56' W 009°47'3 7.0
2020-Mar-19 19:31N 38°55' W 009°43'10 9.9
2020-Mar-19 18:30N 38°55' W 009°30'10 4.8
2020-Mar-19 16:30N 39°03' W 009°37'6 2.9
2020-Mar-19 14:30N 39°02' W 009°44'4 7.8
2020-Mar-19 14:00N 39°03' W 009°49'510.6
2020-Mar-19 13:30N 39°08' W 009°48'19 5.3
2020-Mar-19 09:59N 39°15' W 009°26'1 1.9
2020-Mar-19 09:30N 39°16' W 009°27'4 3.3
2020-Mar-19 08:25N 39°18' W 009°24'18 9.6
2020-Mar-19 06:30N 39°18' W 009°48'3 3.2
2020-Mar-19 05:30N 39°18' W 009°44'2 3.8
2020-Mar-19 05:00N 39°18' W 009°41'2 3.8
2020-Mar-19 04:30N 39°18' W 009°39'4 3.5
2020-Mar-19 03:29N 39°19' W 009°34'3 3.4
2020-Mar-19 02:30N 39°19' W 009°30'6 4.0
2020-Mar-19 00:59N 39°25' W 009°27'2 0.4
2020-Mar-18 19:32N 39°27' W 009°26'9 8.7
2020-Mar-18 18:30N 39°27' W 009°38'  

Dump ship's entire track history